Accueil
METAR-TAF:

METAR-TAF

Aéroports :

Woensdrecht, Pays-Bas

latitude: 51-27N, longitude: 004-20E, altitude: 20 m

Observation

Le bulletin a été fait il y a 33 minutes, à 16:55 UTC
Vent 15 kt de ouest/sud-ouest
Température 20°C
Humidité 64%
Pression 1012 hPa
Visibilité 10 km ou plus
Quelques nuages à une hauteur de 3400 ft
Ciel couvert à une hauteur de 6700 ft

METAR: EHWO 251655Z AUTO 25015KT 9999 FEW034 OVC067 20/13 Q1012 BLU

Heure: 19:28 (17:28 UTC)


TAF: absent

Observations et prévisions météorologiques de plus de 4000 aéroports (messages METAR et TAF).

Les stations disponibles sont représentées par des disques jaunes et rouges sur la carte.

Passer la souris dessus pour voir le nom de la station.

Cliquer dessus pour voir les observations et prévisions météorologiques.

Pour changer de carte: cliquez sur les boutons verts avec une croix noire pour zoomer, sur le bouton vert avec un tiret pour effectuer un zoom arrière, ou sur les flèches vertes pour les cartes adjacentes.


METAR-TAF: